Time;durP1;ratioP1;P1;durP2;ratioP2;P2;SDS_P1;SDS_P2;PMS_P1;PMS_P2;Temp;Humidity;BMP_temperature;BMP_pressure;BME280_temperature;BME280_humidity;BME280_pressure;Samples;Min_cycle;Max_cycle;Signal;HPM_P1;HPM_P2
2022/09/10 00:05:27;;;;;;;2.80;1.30;;;;;;;15.35;79.10;99979.94;30613198;28;96720;-65
2022/09/10 00:20:27;;;;;;;4.30;1.70;;;;;;;15.33;79.02;99973.94;30611790;28;96683;-65
2022/09/10 00:35:31;;;;;;;2.38;1.23;;;;;;;15.16;79.71;99965.47;30609841;28;117254;-64
2022/09/10 00:50:37;;;;;;;1.87;1.10;;;;;;;14.98;79.85;99952.69;30609999;28;96662;-65
2022/09/10 01:05:41;;;;;;;2.27;1.40;;;;;;;15.06;80.15;99922.13;30626350;28;97657;-65
2022/09/10 01:21:11;;;;;;;2.53;1.30;;;;;;;15.04;80.58;99887.47;30675780;28;96658;-65
2022/09/10 01:36:18;;;;;;;1.57;1.10;;;;;;;15.04;80.58;99881.28;30746383;28;97065;-65
2022/09/10 01:51:18;;;;;;;1.70;1.10;;;;;;;15.04;80.82;99881.28;30746586;28;96858;-65
2022/09/10 02:06:22;;;;;;;3.20;1.23;;;;;;;15.07;81.43;99876.31;30744577;28;96811;-65
2022/09/10 02:21:22;;;;;;;1.57;0.90;;;;;;;15.22;81.58;99861.84;30743636;28;96714;-66
2022/09/10 02:36:24;;;;;;;3.13;1.30;;;;;;;15.21;81.10;99839.56;30741974;28;97065;-65
2022/09/10 02:51:25;;;;;;;1.70;1.20;;;;;;;15.06;81.39;99842.50;30740511;28;96643;-65
2022/09/10 03:06:26;;;;;;;3.00;1.38;;;;;;;14.82;81.66;99830.53;30739362;28;96710;-65
2022/09/10 03:21:26;;;;;;;6.55;1.63;;;;;;;14.74;81.86;99833.41;30737356;28;96995;-65
2022/09/10 03:36:32;;;;;;;3.58;1.73;;;;;;;14.75;82.49;99835.09;30734200;28;96860;-65
2022/09/10 03:51:33;;;;;;;2.63;1.77;;;;;;;14.82;82.37;99835.91;30733243;28;96814;-65
2022/09/10 04:06:34;;;;;;;3.80;1.70;;;;;;;14.87;82.72;99811.97;30732231;28;96569;-65
2022/09/10 04:21:34;;;;;;;3.70;1.33;;;;;;;14.81;82.69;99811.97;30731054;28;96671;-65
2022/09/10 04:36:35;;;;;;;3.20;1.35;;;;;;;14.71;82.75;99818.56;30743239;28;96687;-65
2022/09/10 04:51:35;;;;;;;4.72;1.50;;;;;;;14.60;82.69;99821.00;30749657;28;113792;-65
2022/09/10 05:06:35;;;;;;;4.60;1.60;;;;;;;14.49;82.41;99817.06;30749690;28;97316;-65
2022/09/10 05:21:36;;;;;;;6.97;1.77;;;;;;;14.73;83.66;99834.44;30747231;28;96737;-66
2022/09/10 05:36:36;;;;;;;3.08;1.45;;;;;;;15.07;83.11;99819.16;30747162;28;96882;-66
2022/09/10 05:51:36;;;;;;;3.30;1.40;;;;;;;15.38;82.98;99814.97;30741812;28;104013;-65
2022/09/10 06:06:37;;;;;;;2.75;1.45;;;;;;;15.53;82.36;99830.84;30742551;28;104322;-66
2022/09/10 06:21:38;;;;;;;2.30;1.27;;;;;;;15.62;81.85;99826.84;30739007;28;96744;-65
2022/09/10 06:36:38;;;;;;;3.20;1.47;;;;;;;15.79;82.26;99826.38;30738704;28;98340;-65
2022/09/10 06:51:38;;;;;;;1.83;1.30;;;;;;;16.54;81.78;99820.41;30735231;28;101807;-65
2022/09/10 07:06:39;;;;;;;1.80;0.90;;;;;;;17.45;81.45;99828.88;30664507;28;109720;-66
2022/09/10 07:21:39;;;;;;;3.72;1.00;;;;;;;18.88;78.08;99836.47;30678407;28;96807;-65
2022/09/10 07:36:40;;;;;;;2.80;0.98;;;;;;;19.59;76.79;99841.00;30719418;28;96728;-64
2022/09/10 07:51:40;;;;;;;3.42;1.23;;;;;;;20.29;74.88;99850.75;30732143;28;118140;-64
2022/09/10 08:06:40;;;;;;;0.90;0.80;;;;;;;21.61;71.35;99851.47;30724801;28;115872;-63
2022/09/10 08:21:41;;;;;;;4.40;1.40;;;;;;;23.43;66.01;99848.25;30729591;28;97165;-64
2022/09/10 08:36:41;;;;;;;;;;;;;;;24.93;63.18;99849.44;30721513;28;96794;-65
2022/09/10 08:51:52;;;;;;;3.47;0.88;;;;;;;25.88;56.95;99840.72;30608476;28;97651;-65
2022/09/10 09:06:57;;;;;;;3.17;1.20;;;;;;;30.63;47.75;99847.22;30605343;28;97436;-64
2022/09/10 09:22:23;;;;;;;2.07;1.00;;;;;;;40.14;26.91;99841.50;30609364;28;98643;-64
2022/09/10 09:37:30;;;;;;;5.97;1.80;;;;;;;32.59;31.64;99846.31;30622878;28;96724;-64
2022/09/10 09:52:31;;;;;;;2.03;1.00;;;;;;;35.18;27.97;99841.69;30621666;28;97062;-63
2022/09/10 10:07:35;;;;;;;2.90;1.00;;;;;;;42.37;20.94;99832.03;30699862;28;97245;-65
2022/09/10 10:22:37;;;;;;;2.47;0.80;;;;;;;36.86;25.39;99816.56;30674383;28;97168;-63
2022/09/10 10:38:04;;;;;;;4.03;1.20;;;;;;;38.96;23.14;99800.38;30727513;28;96787;-62
2022/09/10 10:53:14;;;;;;;4.13;1.07;;;;;;;44.40;16.78;99785.63;30734132;28;96720;-65
2022/09/10 11:08:24;;;;;;;3.60;1.00;;;;;;;41.74;18.99;99769.84;30709670;28;97089;-66
2022/09/10 11:23:35;;;;;;;4.30;0.80;;;;;;;39.43;20.61;99765.66;30604632;28;96688;-69
2022/09/10 11:38:49;;;;;;;4.90;0.77;;;;;;;40.05;19.18;99758.13;30600433;28;97362;-68
2022/09/10 11:53:50;;;;;;;4.97;1.10;;;;;;;34.93;24.45;99730.97;30626358;28;97014;-65
2022/09/10 12:09:06;;;;;;;4.57;0.97;;;;;;;31.46;28.19;99743.22;30593855;28;98797;-63
2022/09/10 12:24:25;;;;;;;4.83;0.83;;;;;;;26.62;36.32;99734.25;30616747;28;97477;-66
2022/09/10 12:39:27;;;;;;;6.13;1.67;;;;;;;24.49;41.42;99727.44;30680783;28;97058;-71
2022/09/10 12:54:30;;;;;;;5.50;1.63;;;;;;;22.93;46.65;99730.84;30661738;28;97469;-71
2022/09/10 13:09:38;;;;;;;2.43;0.97;;;;;;;22.20;48.22;99695.34;30676295;28;97165;-68
2022/09/10 13:24:59;;;;;;;4.03;1.33;;;;;;;21.05;51.73;99694.41;30735976;28;97413;-66
2022/09/10 13:40:21;;;;;;;3.13;1.10;;;;;;;21.24;53.51;99665.97;30683386;28;97142;-72
2022/09/10 13:55:30;;;;;;;2.33;1.20;;;;;;;22.15;53.36;99675.22;30684377;28;96907;-66
2022/09/10 14:10:34;;;;;;;4.30;1.30;;;;;;;23.37;52.25;99661.78;30694618;28;98040;-65
2022/09/10 14:25:37;;;;;;;2.63;1.07;;;;;;;23.29;51.50;99657.69;30710019;28;97878;-71
2022/09/10 14:40:37;;;;;;;2.77;1.20;;;;;;;24.22;50.00;99656.97;30720907;28;97918;-71
2022/09/10 14:55:37;;;;;;;2.85;0.82;;;;;;;24.69;48.98;99669.44;30680140;28;108083;-67
2022/09/10 15:10:38;;;;;;;2.88;0.88;;;;;;;24.16;47.99;99664.31;30700694;28;96807;-69
2022/09/10 15:25:44;;;;;;;3.03;1.17;;;;;;;23.44;47.94;99677.81;30661903;28;97252;-67
2022/09/10 15:40:48;;;;;;;4.03;1.37;;;;;;;22.26;50.25;99684.25;30621222;28;96866;-68
2022/09/10 15:55:49;;;;;;;5.50;1.80;;;;;;;21.30;52.82;99693.91;30601943;28;96980;-69
2022/09/10 16:10:51;;;;;;;4.60;1.63;;;;;;;20.25;54.88;99706.25;30615839;28;96779;-69
2022/09/10 16:25:55;;;;;;;3.50;2.20;;;;;;;19.29;58.63;99728.56;30699874;28;96910;-70
2022/09/10 16:41:00;;;;;;;3.53;1.60;;;;;;;18.82;60.06;99739.41;30718434;28;97257;-68
2022/09/10 16:56:04;;;;;;;3.97;2.40;;;;;;;18.80;61.65;99738.84;30676155;28;97331;-67
2022/09/10 17:11:06;;;;;;;4.83;2.93;;;;;;;18.65;63.28;99726.63;30666224;28;97144;-65
2022/09/10 17:26:08;;;;;;;2.53;1.63;;;;;;;17.59;64.93;99738.81;30628611;28;97379;-70
2022/09/10 17:41:11;;;;;;;2.27;1.33;;;;;;;17.18;65.78;99717.97;30696781;28;96717;-68
2022/09/10 17:56:14;;;;;;;2.60;1.57;;;;;;;16.83;66.26;99724.75;30693476;28;98414;-64
2022/09/10 18:11:18;;;;;;;3.60;2.40;;;;;;;16.45;67.79;99731.09;30694486;28;97376;-68
2022/09/10 18:26:21;;;;;;;2.37;2.00;;;;;;;15.76;69.34;99744.41;30647185;28;97502;-70
2022/09/10 18:41:30;;;;;;;4.63;2.10;;;;;;;15.84;70.83;99751.38;30715728;28;97077;-69
2022/09/10 18:56:31;;;;;;;2.47;1.90;;;;;;;15.80;71.33;99731.38;30715977;28;97073;-64
2022/09/10 19:11:34;;;;;;;6.43;2.40;;;;;;;15.90;72.86;99767.47;30725638;28;96944;-70
2022/09/10 19:26:35;;;;;;;5.83;3.50;;;;;;;16.15;72.95;99758.63;30724234;28;97404;-66
2022/09/10 19:41:37;;;;;;;6.28;4.20;;;;;;;16.23;73.91;99761.06;30709290;28;98437;-65
2022/09/10 19:56:41;;;;;;;6.33;4.27;;;;;;;16.11;73.83;99746.66;30724302;28;97198;-71
2022/09/10 20:11:41;;;;;;;6.73;5.37;;;;;;;15.90;73.98;99734.44;30722100;28;97608;-67
2022/09/10 20:26:42;;;;;;;6.40;5.35;;;;;;;15.43;75.24;99734.63;30720773;28;96695;-71
2022/09/10 20:41:44;;;;;;;7.43;5.37;;;;;;;15.34;76.01;99730.56;30719628;28;97398;-69
2022/09/10 20:56:45;;;;;;;7.37;5.77;;;;;;;15.17;76.33;99739.09;30718861;28;97173;-67
2022/09/10 21:11:45;;;;;;;6.73;5.90;;;;;;;14.99;77.53;99749.66;30718119;28;96741;-70
2022/09/10 21:26:45;;;;;;;9.38;6.18;;;;;;;14.96;78.20;99760.81;30732287;28;97218;-69
2022/09/10 21:41:48;;;;;;;9.38;5.90;;;;;;;15.06;78.51;99751.28;30732662;28;97121;-69
2022/09/10 21:56:50;;;;;;;5.50;3.30;;;;;;;15.05;78.51;99759.53;30734616;28;97065;-68
2022/09/10 22:11:52;;;;;;;2.80;1.90;;;;;;;14.80;78.25;99760.19;30734525;28;97685;-68
2022/09/10 22:26:53;;;;;;;4.40;2.37;;;;;;;14.58;78.55;99759.56;30731605;28;97591;-71
2022/09/10 22:41:54;;;;;;;3.95;2.20;;;;;;;14.58;78.88;99759.56;30731574;28;97083;-66
2022/09/10 22:56:54;;;;;;;3.45;2.33;;;;;;;14.62;78.72;99760.78;30729131;28;97557;-69
2022/09/10 23:11:54;;;;;;;5.38;2.95;;;;;;;14.34;78.70;99758.34;30730261;28;119440;-69
2022/09/10 23:26:55;;;;;;;5.28;3.08;;;;;;;14.09;78.85;99760.78;30737794;28;96690;-68
2022/09/10 23:41:56;;;;;;;4.00;3.00;;;;;;;13.99;79.27;99748.59;30736143;28;97255;-67
2022/09/10 23:56:56;;;;;;;5.27;3.37;;;;;;;14.03;79.72;99749.03;30734891;28;97025;-69
